createdAt,value
2022-11-08T00:02:05.567Z,98352.28
2022-11-08T00:04:32.232Z,98350.75
2022-11-08T00:07:17.111Z,98361.81
2022-11-08T00:10:02.324Z,98362.91
2022-11-08T00:12:47.204Z,98357.44
2022-11-08T00:15:13.692Z,98353.69
2022-11-08T00:17:40.193Z,98357.69
2022-11-08T00:20:07.423Z,98352.28
2022-11-08T00:22:33.876Z,98356.31
2022-11-08T00:25:00.343Z,98360.06
2022-11-08T00:27:27.364Z,98353.63
2022-11-08T00:29:53.879Z,98346.34
2022-11-08T00:32:23.521Z,98339.53
2022-11-08T00:34:50.824Z,98338.97
2022-11-08T00:37:20.377Z,98333.50
2022-11-08T00:39:47.342Z,98332.09
2022-11-08T00:42:14.119Z,98334.75
2022-11-08T00:44:40.590Z,98333.44
2022-11-08T00:47:07.028Z,98331.31
2022-11-08T00:49:33.419Z,98340.63
2022-11-08T00:51:59.983Z,98340.56
2022-11-08T00:54:26.450Z,98357.22
2022-11-08T00:56:52.846Z,98352.31
2022-11-08T00:59:19.767Z,98347.03
2022-11-08T01:01:47.453Z,98336.59
2022-11-08T01:04:15.768Z,98341.38
2022-11-08T01:06:42.949Z,98339.38
2022-11-08T01:09:10.185Z,98347.88
2022-11-08T01:11:37.949Z,98341.69
2022-11-08T01:14:04.327Z,98342.59
2022-11-08T01:16:33.126Z,98347.34
2022-11-08T01:19:00.457Z,98339.63
2022-11-08T01:21:27.452Z,98340.09
2022-11-08T01:23:54.469Z,98338.53
2022-11-08T01:26:24.867Z,98340.19
2022-11-08T01:28:51.703Z,98341.38
2022-11-08T01:31:29.449Z,98334.81
2022-11-08T01:33:57.139Z,98329.31
2022-11-08T01:36:25.910Z,98323.66
2022-11-08T01:38:52.753Z,98324.75
2022-11-08T01:41:21.549Z,98320.56
2022-11-08T01:43:56.702Z,98310.25
2022-11-08T01:46:28.739Z,98313.75
2022-11-08T01:49:32.844Z,98316.81
2022-11-08T01:52:03.469Z,98309.28
2022-11-08T01:54:40.159Z,98294.09
2022-11-08T01:57:10.917Z,98299.06
2022-11-08T01:59:41.517Z,98298.75
2022-11-08T02:02:09.873Z,98290.16
2022-11-08T02:04:37.946Z,98296.72
2022-11-08T02:07:06.628Z,98295.50
2022-11-08T02:09:37.464Z,98299.97
2022-11-08T02:12:04.825Z,98296.41
2022-11-08T02:14:31.624Z,98296.97
2022-11-08T02:16:58.093Z,98294.72
2022-11-08T02:19:49.616Z,98285.88
2022-11-08T02:22:35.314Z,98287.69
2022-11-08T02:25:02.585Z,98283.59
2022-11-08T02:27:29.048Z,98283.59
2022-11-08T02:29:56.388Z,98285.72
2022-11-08T02:32:23.299Z,98288.06
2022-11-08T02:34:54.497Z,98279.69
2022-11-08T02:37:23.408Z,98286.00
2022-11-08T02:39:49.888Z,98276.53
2022-11-08T02:42:19.035Z,98280.75
2022-11-08T02:44:46.544Z,98271.66
2022-11-08T02:47:13.547Z,98272.38
2022-11-08T02:49:40.019Z,98265.34
2022-11-08T02:52:06.521Z,98266.91
2022-11-08T02:54:32.942Z,98269.75
2022-11-08T02:56:59.447Z,98273.34
2022-11-08T02:59:28.875Z,98266.50
2022-11-08T03:01:55.353Z,98262.03
2022-11-08T03:04:21.828Z,98264.25
2022-11-08T03:06:48.226Z,98259.16
2022-11-08T03:09:14.626Z,98257.97
2022-11-08T03:11:41.073Z,98254.97
2022-11-08T03:14:07.569Z,98255.53
2022-11-08T03:16:33.963Z,98255.91
2022-11-08T03:19:00.331Z,98259.91
2022-11-08T03:21:26.739Z,98254.00
2022-11-08T03:23:53.179Z,98267.16
2022-11-08T03:26:19.666Z,98252.59
2022-11-08T03:28:46.158Z,98249.34
2022-11-08T03:31:12.619Z,98241.56
2022-11-08T03:33:39.411Z,98233.16
2022-11-08T03:36:05.964Z,98233.16
2022-11-08T03:38:32.491Z,98227.72
2022-11-08T03:40:58.948Z,98227.94
2022-11-08T03:43:26.596Z,98223.31
2022-11-08T03:45:53.195Z,98223.53
2022-11-08T03:48:20.108Z,98227.69
2022-11-08T03:50:46.924Z,98231.41
2022-11-08T03:53:13.326Z,98219.34
2022-11-08T03:55:39.769Z,98229.91
2022-11-08T03:58:06.160Z,98217.59
2022-11-08T04:00:32.699Z,98221.91
2022-11-08T04:03:04.140Z,98218.53
2022-11-08T04:05:32.519Z,98210.22
2022-11-08T04:08:00.233Z,98211.03
2022-11-08T04:10:26.860Z,98211.88
2022-11-08T04:13:12.035Z,98213.22
2022-11-08T04:15:38.779Z,98206.69
2022-11-08T04:18:23.777Z,98203.31
2022-11-08T04:21:08.590Z,98199.38
2022-11-08T04:23:36.903Z,98200.38
2022-11-08T04:26:08.174Z,98193.41
2022-11-08T04:28:36.851Z,98189.44
2022-11-08T04:31:21.282Z,98184.81
2022-11-08T04:33:47.742Z,98197.41
2022-11-08T04:36:16.942Z,98184.00
2022-11-08T04:38:43.740Z,98176.09
2022-11-08T04:41:13.065Z,98171.84
2022-11-08T04:43:39.774Z,98178.59
2022-11-08T04:46:09.537Z,98178.53
2022-11-08T04:48:36.232Z,98181.19
2022-11-08T04:51:08.199Z,98169.13
2022-11-08T04:53:34.692Z,98167.22
2022-11-08T04:56:06.939Z,98178.38
2022-11-08T04:58:35.583Z,98179.44
2022-11-08T05:01:02.942Z,98164.09
2022-11-08T05:03:30.423Z,98170.84
2022-11-08T05:06:20.530Z,98160.91
2022-11-08T05:08:47.070Z,98148.91
2022-11-08T05:11:16.188Z,98152.63
2022-11-08T05:13:43.202Z,98157.53
2022-11-08T05:16:15.645Z,98159.00
2022-11-08T05:18:42.942Z,98156.63
2022-11-08T05:21:30.384Z,98147.25
2022-11-08T05:23:58.137Z,98146.81
2022-11-08T05:26:24.831Z,98147.34
2022-11-08T05:28:51.318Z,98146.28
2022-11-08T05:31:17.858Z,98144.63
2022-11-08T05:33:44.354Z,98138.91
2022-11-08T05:36:13.189Z,98131.31
2022-11-08T05:38:40.866Z,98126.84
2022-11-08T05:41:13.030Z,98132.34
2022-11-08T05:43:40.420Z,98120.22
2022-11-08T05:46:07.379Z,98122.72
2022-11-08T05:48:34.135Z,98120.66
2022-11-08T05:51:00.972Z,98115.63
2022-11-08T05:53:27.597Z,98113.84
2022-11-08T05:56:02.231Z,98113.47
2022-11-08T05:58:30.479Z,98108.75
2022-11-08T06:01:19.840Z,98111.63
2022-11-08T06:03:47.724Z,98109.94
2022-11-08T06:06:17.410Z,98104.66
2022-11-08T06:08:47.674Z,98113.97
2022-11-08T06:11:21.387Z,98113.28
2022-11-08T06:13:48.022Z,98117.66
2022-11-08T06:16:16.449Z,98097.88
2022-11-08T06:18:43.342Z,98086.63
2022-11-08T06:21:15.529Z,98115.53
2022-11-08T06:23:42.671Z,98124.16
2022-11-08T06:26:09.374Z,98125.44
2022-11-08T06:28:36.351Z,98137.09
2022-11-08T06:31:03.976Z,98134.69
2022-11-08T06:33:30.567Z,98137.03
2022-11-08T06:35:57.133Z,98122.19
2022-11-08T06:38:26.766Z,98115.50
2022-11-08T06:40:53.558Z,98108.31
2022-11-08T06:43:20.437Z,98111.28
2022-11-08T06:45:47.468Z,98112.56
2022-11-08T06:48:16.656Z,98107.34
2022-11-08T06:50:43.601Z,98119.31
2022-11-08T06:53:13.156Z,98115.72
2022-11-08T06:55:40.103Z,98106.47
2022-11-08T06:58:06.703Z,98103.34
2022-11-08T07:00:34.441Z,98116.69
2022-11-08T07:03:10.843Z,98098.22
2022-11-08T07:05:37.471Z,98101.41
2022-11-08T07:08:04.963Z,98100.84
2022-11-08T07:10:33.091Z,98108.56
2022-11-08T07:13:09.582Z,98107.72
2022-11-08T07:15:36.683Z,98102.00
2022-11-08T07:18:05.835Z,98099.34
2022-11-08T07:20:32.857Z,98096.75
2022-11-08T07:23:02.223Z,98086.28
2022-11-08T07:25:29.836Z,98088.78
2022-11-08T07:28:07.190Z,98094.44
2022-11-08T07:30:35.379Z,98096.03
2022-11-08T07:33:02.050Z,98105.22
2022-11-08T07:35:28.524Z,98093.41
2022-11-08T07:37:55.992Z,98105.09
2022-11-08T07:40:23.014Z,98091.38
2022-11-08T07:43:10.649Z,98090.66
2022-11-08T07:45:36.058Z,98102.19
2022-11-08T07:48:10.958Z,98090.41
2022-11-08T07:50:38.824Z,98091.56
2022-11-08T07:53:05.338Z,98094.75
2022-11-08T07:55:31.873Z,98107.25
2022-11-08T07:58:02.140Z,98107.25
2022-11-08T08:00:30.374Z,98101.75
2022-11-08T08:03:01.461Z,98109.69
2022-11-08T08:05:34.542Z,98107.84
2022-11-08T08:08:02.089Z,98098.34
2022-11-08T08:10:29.572Z,98100.44
2022-11-08T08:12:57.291Z,98100.38
2022-11-08T08:15:25.025Z,98108.38
2022-11-08T08:17:51.873Z,98097.91
2022-11-08T08:20:19.176Z,98093.03
2022-11-08T08:22:47.197Z,98094.75
2022-11-08T08:25:14.731Z,98092.81
2022-11-08T08:27:46.828Z,98098.06
2022-11-08T08:30:13.944Z,98107.19
2022-11-08T08:32:40.475Z,98094.78
2022-11-08T08:35:07.190Z,98106.53
2022-11-08T08:37:33.617Z,98098.94
2022-11-08T08:40:00.052Z,98099.72
2022-11-08T08:42:26.538Z,98089.97
2022-11-08T08:44:53.101Z,98098.66
2022-11-08T08:47:19.557Z,98104.28
2022-11-08T08:49:46.059Z,98100.50
2022-11-08T08:52:12.525Z,98099.47
2022-11-08T08:54:38.942Z,98105.09
2022-11-08T08:57:05.416Z,98103.66
2022-11-08T09:02:18.592Z,98113.16
2022-11-08T09:04:45.084Z,98114.09
2022-11-08T09:07:11.601Z,98111.75
2022-11-08T09:09:38.282Z,98108.97
2022-11-08T09:12:07.958Z,98106.31
2022-11-08T09:14:36.791Z,98114.78
2022-11-08T09:17:03.338Z,98114.63
2022-11-08T09:19:29.875Z,98112.56
2022-11-08T09:21:56.349Z,98112.66
2022-11-08T09:24:22.909Z,98107.03
2022-11-08T09:26:49.359Z,98114.34
2022-11-08T09:29:15.978Z,98113.72
2022-11-08T09:31:42.366Z,98108.19
2022-11-08T09:34:08.921Z,98102.16
2022-11-08T09:36:35.397Z,98097.97
2022-11-08T09:39:01.891Z,98086.00
2022-11-08T09:41:54.615Z,98093.91
2022-11-08T09:44:25.296Z,98092.31
2022-11-08T09:46:55.876Z,98093.06
2022-11-08T09:49:25.427Z,98094.53
2022-11-08T09:51:52.194Z,98098.69
2022-11-08T09:54:26.262Z,98108.28
2022-11-08T09:56:54.341Z,98114.84
2022-11-08T09:59:52.300Z,98121.19
2022-11-08T10:02:21.604Z,98112.06
2022-11-08T10:05:16.264Z,98102.88
2022-11-08T10:07:53.226Z,98112.75
2022-11-08T10:10:55.342Z,98107.03
2022-11-08T10:13:24.570Z,98095.22
2022-11-08T10:16:14.464Z,98100.53
2022-11-08T10:18:49.734Z,98090.66
2022-11-08T10:21:34.909Z,98091.41
2022-11-08T10:24:14.821Z,98076.38
2022-11-08T10:26:45.159Z,98083.75
2022-11-08T10:29:17.740Z,98078.16
2022-11-08T10:31:47.222Z,98081.50
2022-11-08T10:34:23.464Z,98090.00
2022-11-08T10:37:04.863Z,98083.47
2022-11-08T10:39:38.062Z,98081.00
2022-11-08T10:42:25.737Z,98086.84
2022-11-08T10:44:52.636Z,98086.75
2022-11-08T10:47:27.118Z,98083.38
2022-11-08T10:50:02.452Z,98088.84
2022-11-08T10:52:45.299Z,98087.53
2022-11-08T10:55:39.022Z,98085.69
2022-11-08T10:58:25.379Z,98089.72
2022-11-08T11:01:04.363Z,98084.94
2022-11-08T11:03:31.020Z,98090.97
2022-11-08T11:06:21.465Z,98086.06
2022-11-08T11:08:50.596Z,98095.38
2022-11-08T11:11:45.361Z,98100.94
2022-11-08T11:14:21.763Z,98079.34
2022-11-08T11:16:56.549Z,98076.03
2022-11-08T11:19:25.391Z,98078.84
2022-11-08T11:22:03.075Z,98082.75
2022-11-08T11:24:30.912Z,98064.84
2022-11-08T11:26:57.251Z,98072.91
2022-11-08T11:29:30.021Z,98061.81
2022-11-08T11:31:57.051Z,98068.38
2022-11-08T11:34:32.627Z,98064.44
2022-11-08T11:37:25.244Z,98055.38
2022-11-08T11:40:32.591Z,98052.50
2022-11-08T11:43:07.769Z,98059.00
2022-11-08T11:45:45.033Z,98068.97
2022-11-08T11:48:17.330Z,98064.81
2022-11-08T11:50:49.422Z,98065.91
2022-11-08T11:53:26.807Z,98063.63
2022-11-08T11:56:21.217Z,98058.84
2022-11-08T11:58:54.645Z,98068.78
2022-11-08T12:01:49.521Z,98058.97
2022-11-08T12:04:31.435Z,98062.41
2022-11-08T12:07:30.650Z,98054.56
2022-11-08T12:10:14.267Z,98049.97
2022-11-08T12:13:14.909Z,98047.75
2022-11-08T12:15:49.778Z,98046.84
2022-11-08T12:18:41.558Z,98058.59
2022-11-08T12:21:21.522Z,98054.97
2022-11-08T12:24:22.044Z,98060.88
2022-11-08T12:27:00.412Z,98049.59
2022-11-08T12:29:43.478Z,98055.94
2022-11-08T12:32:09.962Z,98058.88
2022-11-08T12:35:04.732Z,98053.28
2022-11-08T12:38:25.540Z,98051.28
2022-11-08T12:41:11.754Z,98049.09
2022-11-08T12:43:59.516Z,98033.81
2022-11-08T12:46:32.650Z,98037.25
2022-11-08T12:49:16.808Z,98034.34
2022-11-08T12:51:46.098Z,98033.38
2022-11-08T12:54:38.686Z,98035.53
2022-11-08T12:57:11.511Z,98030.22
2022-11-08T13:00:03.442Z,98023.16
2022-11-08T13:02:37.634Z,98024.50
2022-11-08T13:05:11.534Z,98018.44
2022-11-08T13:07:48.278Z,98017.50
2022-11-08T13:10:34.738Z,98020.25
2022-11-08T13:13:50.721Z,98012.41
2022-11-08T13:16:20.450Z,98004.59
2022-11-08T13:18:50.084Z,97998.94
2022-11-08T13:21:25.942Z,97994.59
2022-11-08T13:24:14.268Z,97993.22
2022-11-08T13:26:50.246Z,97994.31
2022-11-08T13:29:20.178Z,97986.44
2022-11-08T13:32:03.033Z,97993.59
2022-11-08T13:34:35.351Z,97987.75
2022-11-08T13:37:30.709Z,97992.44
2022-11-08T13:40:09.356Z,98001.25
2022-11-08T13:42:35.925Z,98006.84
2022-11-08T13:45:18.704Z,98003.91
2022-11-08T13:47:47.962Z,98005.13
2022-11-08T13:50:29.528Z,97998.19
2022-11-08T13:53:03.979Z,97988.31
2022-11-08T13:55:42.968Z,97993.19
2022-11-08T13:58:34.279Z,97987.69
2022-11-08T14:01:21.110Z,97997.56
2022-11-08T14:03:47.690Z,98001.03
2022-11-08T14:06:29.434Z,97996.72
2022-11-08T14:09:17.440Z,97996.25
2022-11-08T14:11:44.433Z,97995.00
2022-11-08T14:14:20.916Z,98001.53
2022-11-08T14:16:52.443Z,98006.84
2022-11-08T14:19:25.875Z,98006.69
2022-11-08T14:21:58.201Z,98004.34
2022-11-08T14:24:28.391Z,98003.75
2022-11-08T14:26:55.711Z,98007.81
2022-11-08T14:29:24.447Z,98013.91
2022-11-08T14:32:06.784Z,98012.59
2022-11-08T14:34:38.010Z,98012.81
2022-11-08T14:37:12.174Z,98002.81
2022-11-08T14:39:38.677Z,98005.66
2022-11-08T14:42:18.839Z,97995.41
2022-11-08T14:44:46.539Z,97988.72
2022-11-08T14:47:30.185Z,97989.31
2022-11-08T14:50:00.300Z,97994.28
2022-11-08T14:52:31.891Z,98000.47
2022-11-08T14:55:05.203Z,97993.56
2022-11-08T14:57:38.679Z,97993.66
2022-11-08T15:00:11.114Z,97998.16
2022-11-08T15:02:38.000Z,97999.72
2022-11-08T15:05:05.571Z,97998.34
2022-11-08T15:07:33.608Z,97992.63
2022-11-08T15:10:09.855Z,97988.91
2022-11-08T15:12:42.080Z,97989.09
2022-11-08T15:15:37.991Z,97996.41
2022-11-08T15:18:18.229Z,97984.50
2022-11-08T15:20:56.490Z,97982.34
2022-11-08T15:23:36.409Z,97979.56
2022-11-08T15:26:02.966Z,97976.44
2022-11-08T15:28:34.104Z,97971.09
2022-11-08T15:31:03.315Z,97968.03
2022-11-08T15:33:36.415Z,97962.50
2022-11-08T15:36:10.957Z,97963.91
2022-11-08T15:38:40.503Z,97970.16
2022-11-08T15:41:25.550Z,97973.47
2022-11-08T15:43:55.271Z,97972.09
2022-11-08T15:46:38.536Z,97974.00
2022-11-08T15:49:20.828Z,97972.34
2022-11-08T15:51:52.011Z,97979.44
2022-11-08T15:54:19.788Z,97970.50
2022-11-08T15:56:47.621Z,97962.56
2022-11-08T15:59:30.142Z,97964.59
2022-11-08T16:01:59.439Z,97961.72
2022-11-08T16:04:28.352Z,97960.88
2022-11-08T16:06:55.621Z,97960.94
2022-11-08T16:09:22.171Z,97960.84
2022-11-08T16:11:49.625Z,97969.34
2022-11-08T16:14:22.911Z,97966.84
2022-11-08T16:16:50.013Z,97975.34
2022-11-08T16:19:22.400Z,97967.16
2022-11-08T16:21:49.532Z,97966.16
2022-11-08T16:24:16.203Z,97968.34
2022-11-08T16:26:44.194Z,97970.44
2022-11-08T16:29:19.673Z,97964.59
2022-11-08T16:31:46.688Z,97962.16
2022-11-08T16:34:13.233Z,97966.34
2022-11-08T16:36:39.901Z,97965.22
2022-11-08T16:39:07.601Z,97961.75
2022-11-08T16:41:37.619Z,97962.66
2022-11-08T16:44:06.805Z,97951.44
2022-11-08T16:46:33.300Z,97953.09
2022-11-08T16:48:59.947Z,97951.78
2022-11-08T16:51:26.727Z,97960.13
2022-11-08T16:53:53.580Z,97951.41
2022-11-08T16:56:20.383Z,97956.69
2022-11-08T16:58:46.847Z,97966.00
2022-11-08T17:01:22.036Z,97951.97
2022-11-08T17:03:48.712Z,97951.59
2022-11-08T17:06:18.178Z,97951.69
2022-11-08T17:08:46.292Z,97941.44
2022-11-08T17:11:22.000Z,97952.44
2022-11-08T17:13:49.156Z,97948.56
2022-11-08T17:16:16.476Z,97960.81
2022-11-08T17:18:42.973Z,97947.72
2022-11-08T17:21:38.285Z,97962.66
2022-11-08T17:23:58.481Z,97954.25
2022-11-08T17:26:25.119Z,97951.75
2022-11-08T17:28:55.179Z,97949.09
2022-11-08T17:31:21.644Z,97943.47
2022-11-08T17:33:48.071Z,97945.47
2022-11-08T17:36:14.769Z,97946.78
2022-11-08T17:38:42.201Z,97952.16
2022-11-08T17:41:13.205Z,97959.75
2022-11-08T17:43:40.629Z,97963.03
2022-11-08T17:46:07.780Z,97966.88
2022-11-08T17:48:34.318Z,97970.31
2022-11-08T17:51:01.497Z,97967.34
2022-11-08T17:53:28.568Z,97978.78
2022-11-08T17:55:57.527Z,97973.00
2022-11-08T17:58:25.854Z,97981.03
2022-11-08T18:00:58.028Z,97986.09
2022-11-08T18:03:26.282Z,97997.44
2022-11-08T18:06:04.287Z,97992.47
2022-11-08T18:08:32.940Z,97978.88
2022-11-08T18:11:00.026Z,97990.38
2022-11-08T18:13:27.393Z,97976.59
2022-11-08T18:15:53.878Z,97978.94
2022-11-08T18:18:20.736Z,97976.06
2022-11-08T18:20:54.789Z,97979.28
2022-11-08T18:23:22.029Z,97983.72
2022-11-08T18:25:50.440Z,97983.91
2022-11-08T18:28:17.705Z,97976.72
2022-11-08T18:30:47.686Z,97977.06
2022-11-08T18:33:16.640Z,97972.25
2022-11-08T18:35:43.485Z,97978.81
2022-11-08T18:38:11.589Z,97980.84
2022-11-08T18:40:38.263Z,97970.97
2022-11-08T18:43:04.872Z,97977.91
2022-11-08T18:45:31.458Z,97974.78
2022-11-08T18:47:57.857Z,97970.25
2022-11-08T18:50:24.327Z,97967.38
2022-11-08T18:52:50.858Z,97950.50
2022-11-08T18:55:17.788Z,97944.97
2022-11-08T18:57:44.221Z,97941.09
2022-11-08T19:00:10.929Z,97956.56
2022-11-08T19:02:37.560Z,97960.66
2022-11-08T19:05:04.369Z,97965.91
2022-11-08T19:07:30.996Z,97955.94
2022-11-08T19:09:57.488Z,97949.84
2022-11-08T19:12:23.935Z,97950.31
2022-11-08T19:14:50.392Z,97940.16
2022-11-08T19:17:16.943Z,97942.66
2022-11-08T19:19:44.254Z,97934.44
2022-11-08T19:22:11.118Z,97936.00
2022-11-08T19:24:38.590Z,97927.47
2022-11-08T19:27:05.947Z,97925.09
2022-11-08T19:29:33.008Z,97927.69
2022-11-08T19:31:59.911Z,97919.59
2022-11-08T19:34:37.241Z,97916.34
2022-11-08T19:37:04.023Z,97917.34
2022-11-08T19:39:31.025Z,97923.34
2022-11-08T19:41:57.525Z,97925.84
2022-11-08T19:44:24.313Z,97920.13
2022-11-08T19:46:56.472Z,97923.56
2022-11-08T19:49:28.238Z,97920.88
2022-11-08T19:51:55.099Z,97911.06
2022-11-08T19:54:21.942Z,97919.09
2022-11-08T19:57:05.741Z,97918.19
2022-11-08T19:59:41.305Z,97920.03
2022-11-08T20:02:12.013Z,97927.88
2022-11-08T20:04:38.763Z,97935.41
2022-11-08T20:07:08.139Z,97936.19
2022-11-08T20:09:40.844Z,97937.66
2022-11-08T20:12:07.523Z,97930.63
2022-11-08T20:14:33.987Z,97938.44
2022-11-08T20:17:03.582Z,97934.16
2022-11-08T20:19:30.158Z,97937.50
2022-11-08T20:21:57.538Z,97935.56
2022-11-08T20:24:24.247Z,97938.97
2022-11-08T20:26:53.517Z,97944.09
2022-11-08T20:29:19.983Z,97951.44
2022-11-08T20:31:48.979Z,97953.16
2022-11-08T20:34:15.497Z,97948.53
2022-11-08T20:36:44.179Z,97958.84
2022-11-08T20:39:17.192Z,97967.97
2022-11-08T20:41:46.531Z,97975.22
2022-11-08T20:44:13.277Z,97971.44
2022-11-08T20:46:41.436Z,97975.78
2022-11-08T20:49:11.490Z,97968.94
2022-11-08T20:51:40.770Z,97963.59
2022-11-08T20:54:07.635Z,97966.66
2022-11-08T20:56:34.205Z,97972.25
2022-11-08T20:59:01.491Z,97975.22
2022-11-08T21:01:32.746Z,97974.31
2022-11-08T21:03:59.983Z,97975.22
2022-11-08T21:06:35.668Z,97967.00
2022-11-08T21:09:25.429Z,97974.09
2022-11-08T21:11:51.051Z,97970.06
2022-11-08T21:14:20.477Z,97965.53
2022-11-08T21:17:20.124Z,97965.09
2022-11-08T21:19:39.082Z,97961.44
2022-11-08T21:22:18.437Z,97966.75
2022-11-08T21:24:49.812Z,97966.63
2022-11-08T21:27:17.102Z,97979.09
2022-11-08T21:29:51.846Z,97976.44
2022-11-08T21:32:23.270Z,97962.59
2022-11-08T21:34:52.780Z,97964.44
2022-11-08T21:37:19.268Z,97967.38
2022-11-08T21:39:45.779Z,97965.22
2022-11-08T21:42:14.498Z,97976.44
2022-11-08T21:44:41.003Z,97990.84
2022-11-08T21:47:08.000Z,97994.63
2022-11-08T21:52:29.833Z,97995.06
2022-11-08T21:54:56.269Z,97994.13
2022-11-08T21:57:22.747Z,97984.50
2022-11-08T21:59:49.214Z,98004.75
2022-11-08T22:02:21.213Z,98001.59
2022-11-08T22:04:47.743Z,97988.94
2022-11-08T22:07:14.259Z,97991.94
2022-11-08T22:09:40.733Z,97997.63
2022-11-08T22:12:07.253Z,97993.03
2022-11-08T22:14:33.732Z,97990.25
2022-11-08T22:17:00.096Z,97991.97
2022-11-08T22:19:26.493Z,97981.31
2022-11-08T22:21:52.974Z,97989.78
2022-11-08T22:24:22.571Z,97987.44
2022-11-08T22:26:50.616Z,98002.50
2022-11-08T22:29:17.485Z,97988.75
2022-11-08T22:31:44.064Z,97980.94
2022-11-08T22:34:11.097Z,97975.63
2022-11-08T22:36:44.513Z,97977.75
2022-11-08T22:39:15.665Z,97964.59
2022-11-08T22:41:43.577Z,97972.75
2022-11-08T22:44:12.216Z,97979.25
2022-11-08T22:46:40.067Z,97977.13
2022-11-08T22:49:06.613Z,97975.84
2022-11-08T22:51:33.036Z,97980.94
2022-11-08T22:53:59.458Z,97987.94
2022-11-08T22:56:25.857Z,97981.09
2022-11-08T22:58:52.312Z,97974.16
2022-11-08T23:01:18.806Z,97984.72
2022-11-08T23:03:46.382Z,97991.09
2022-11-08T23:06:13.757Z,97987.03
2022-11-08T23:08:40.232Z,97982.56
2022-11-08T23:11:25.898Z,97974.19
2022-11-08T23:14:10.586Z,97971.97
2022-11-08T23:16:40.870Z,97969.75
2022-11-08T23:19:37.921Z,97980.75
2022-11-08T23:22:25.312Z,97963.44
2022-11-08T23:24:51.803Z,97968.22
2022-11-08T23:27:38.083Z,97970.25
2022-11-08T23:30:24.786Z,97964.63
2022-11-08T23:32:52.047Z,97947.66
2022-11-08T23:35:20.399Z,97948.22
2022-11-08T23:37:47.210Z,97956.38
2022-11-08T23:40:35.133Z,97956.56
2022-11-08T23:43:31.314Z,97957.69
2022-11-08T23:46:04.007Z,97964.91
2022-11-08T23:48:30.421Z,97965.19
2022-11-08T23:50:56.863Z,97968.13
2022-11-08T23:53:25.148Z,97959.53
2022-11-08T23:55:53.324Z,97953.91
2022-11-08T23:58:20.647Z,97952.28
